In Rescue
 
Open Full Screen Window  High Contrast Mode
Wind Gusting 00 knots
03
July 13, 2020 10:18 AM EDT
Weather Information
Wind Direction
  040 °
Wind Speed
  03 kt (3 mph)
Wind Gust
  00 kt (0 mph)
Altimeter
30.01 in
Visibility
10 SM
Temperature
20° C
68° F
Dewpoint
14° C
57° F
Humidity
69%
1hr Rain Fall
00.00 in.
24hr Rain Fall
00.00 in.
Sky Condition
Clear
VFR

METAR KERY 131418Z AUTO 04003KT 10SM CLR 20/14 A3001 RMK AO2 T02000143

FAA Disclaimer: The data displayed is for advisory purposes only and is not to be used for flight planning or operations.